sensor_id;sensor_type;location;lat;lon;timestamp;P1;durP1;ratioP1;P2;durP2;ratioP2
76850;SDS011;65824;43.726;20.692;2023-05-31T00:00:26;10.25;;;5.15;;
76850;SDS011;65824;43.726;20.692;2023-05-31T00:02:52;9.95;;;4.82;;
76850;SDS011;65824;43.726;20.692;2023-05-31T00:05:20;8.90;;;5.00;;
76850;SDS011;65824;43.726;20.692;2023-05-31T00:07:49;8.18;;;4.75;;
76850;SDS011;65824;43.726;20.692;2023-05-31T00:10:14;7.90;;;4.50;;
76850;SDS011;65824;43.726;20.692;2023-05-31T00:12:40;7.85;;;4.72;;
76850;SDS011;65824;43.726;20.692;2023-05-31T00:15:05;7.45;;;4.57;;
76850;SDS011;65824;43.726;20.692;2023-05-31T00:17:31;7.72;;;5.32;;
76850;SDS011;65824;43.726;20.692;2023-05-31T00:19:57;7.85;;;5.10;;
76850;SDS011;65824;43.726;20.692;2023-05-31T00:22:23;7.95;;;4.75;;
76850;SDS011;65824;43.726;20.692;2023-05-31T00:24:49;10.23;;;4.78;;
76850;SDS011;65824;43.726;20.692;2023-05-31T00:27:14;7.68;;;4.70;;
76850;SDS011;65824;43.726;20.692;2023-05-31T00:29:40;7.50;;;4.78;;
76850;SDS011;65824;43.726;20.692;2023-05-31T00:32:07;7.85;;;5.07;;
76850;SDS011;65824;43.726;20.692;2023-05-31T00:34:33;9.88;;;5.25;;
76850;SDS011;65824;43.726;20.692;2023-05-31T00:36:59;9.10;;;4.70;;
76850;SDS011;65824;43.726;20.692;2023-05-31T00:39:25;9.15;;;4.60;;
76850;SDS011;65824;43.726;20.692;2023-05-31T00:41:51;8.32;;;4.90;;
76850;SDS011;65824;43.726;20.692;2023-05-31T00:44:18;8.38;;;4.57;;
76850;SDS011;65824;43.726;20.692;2023-05-31T00:46:43;8.23;;;4.38;;
76850;SDS011;65824;43.726;20.692;2023-05-31T00:49:10;11.13;;;5.03;;
76850;SDS011;65824;43.726;20.692;2023-05-31T00:51:36;11.13;;;4.75;;
76850;SDS011;65824;43.726;20.692;2023-05-31T00:54:01;7.95;;;4.97;;
76850;SDS011;65824;43.726;20.692;2023-05-31T00:56:28;9.10;;;5.53;;
76850;SDS011;65824;43.726;20.692;2023-05-31T00:58:54;7.05;;;5.03;;
76850;SDS011;65824;43.726;20.692;2023-05-31T01:01:21;9.63;;;5.75;;
76850;SDS011;65824;43.726;20.692;2023-05-31T01:03:55;9.50;;;6.47;;
76850;SDS011;65824;43.726;20.692;2023-05-31T01:06:22;10.38;;;7.72;;
76850;SDS011;65824;43.726;20.692;2023-05-31T01:08:48;10.43;;;7.53;;
76850;SDS011;65824;43.726;20.692;2023-05-31T01:14:24;11.10;;;8.10;;
76850;SDS011;65824;43.726;20.692;2023-05-31T01:16:54;10.80;;;7.25;;
76850;SDS011;65824;43.726;20.692;2023-05-31T01:22:07;11.25;;;7.93;;
76850;SDS011;65824;43.726;20.692;2023-05-31T01:24:51;12.65;;;7.03;;
76850;SDS011;65824;43.726;20.692;2023-05-31T01:27:22;9.55;;;6.53;;
76850;SDS011;65824;43.726;20.692;2023-05-31T01:29:48;9.15;;;5.90;;
76850;SDS011;65824;43.726;20.692;2023-05-31T01:32:14;9.40;;;6.03;;
76850;SDS011;65824;43.726;20.692;2023-05-31T01:34:44;8.40;;;5.60;;
76850;SDS011;65824;43.726;20.692;2023-05-31T01:37:10;9.00;;;5.20;;
76850;SDS011;65824;43.726;20.692;2023-05-31T01:39:36;10.25;;;5.13;;
76850;SDS011;65824;43.726;20.692;2023-05-31T01:42:01;9.32;;;5.43;;
76850;SDS011;65824;43.726;20.692;2023-05-31T01:44:28;7.72;;;5.40;;
76850;SDS011;65824;43.726;20.692;2023-05-31T01:46:54;9.63;;;5.93;;
76850;SDS011;65824;43.726;20.692;2023-05-31T01:49:19;8.95;;;6.30;;
76850;SDS011;65824;43.726;20.692;2023-05-31T01:51:45;9.10;;;5.40;;
76850;SDS011;65824;43.726;20.692;2023-05-31T01:54:11;10.32;;;6.22;;
76850;SDS011;65824;43.726;20.692;2023-05-31T01:56:38;8.35;;;5.18;;
76850;SDS011;65824;43.726;20.692;2023-05-31T01:59:05;9.57;;;5.28;;
76850;SDS011;65824;43.726;20.692;2023-05-31T02:01:35;10.25;;;5.70;;
76850;SDS011;65824;43.726;20.692;2023-05-31T02:04:01;8.98;;;5.63;;
76850;SDS011;65824;43.726;20.692;2023-05-31T02:06:27;10.38;;;5.15;;
76850;SDS011;65824;43.726;20.692;2023-05-31T02:08:53;9.15;;;5.15;;
76850;SDS011;65824;43.726;20.692;2023-05-31T02:11:20;6.72;;;4.50;;
76850;SDS011;65824;43.726;20.692;2023-05-31T02:13:47;6.97;;;4.68;;
76850;SDS011;65824;43.726;20.692;2023-05-31T02:16:12;8.35;;;4.88;;
76850;SDS011;65824;43.726;20.692;2023-05-31T02:18:38;7.68;;;4.63;;
76850;SDS011;65824;43.726;20.692;2023-05-31T02:21:04;8.20;;;4.57;;
76850;SDS011;65824;43.726;20.692;2023-05-31T02:23:31;7.22;;;4.45;;
76850;SDS011;65824;43.726;20.692;2023-05-31T02:25:58;8.48;;;5.20;;
76850;SDS011;65824;43.726;20.692;2023-05-31T02:28:23;7.82;;;4.57;;
76850;SDS011;65824;43.726;20.692;2023-05-31T02:30:58;8.23;;;4.40;;
76850;SDS011;65824;43.726;20.692;2023-05-31T02:33:25;6.60;;;4.30;;
76850;SDS011;65824;43.726;20.692;2023-05-31T02:35:51;8.00;;;4.97;;
76850;SDS011;65824;43.726;20.692;2023-05-31T02:38:19;7.20;;;4.53;;
76850;SDS011;65824;43.726;20.692;2023-05-31T02:40:45;8.60;;;4.53;;
76850;SDS011;65824;43.726;20.692;2023-05-31T02:43:10;8.60;;;4.72;;
76850;SDS011;65824;43.726;20.692;2023-05-31T02:45:36;7.95;;;4.80;;
76850;SDS011;65824;43.726;20.692;2023-05-31T02:48:02;8.57;;;4.75;;
76850;SDS011;65824;43.726;20.692;2023-05-31T02:50:31;9.48;;;5.18;;
76850;SDS011;65824;43.726;20.692;2023-05-31T02:52:58;8.38;;;5.18;;
76850;SDS011;65824;43.726;20.692;2023-05-31T02:55:25;7.50;;;4.78;;
76850;SDS011;65824;43.726;20.692;2023-05-31T02:57:52;8.45;;;4.45;;
76850;SDS011;65824;43.726;20.692;2023-05-31T03:00:18;7.05;;;4.57;;
76850;SDS011;65824;43.726;20.692;2023-05-31T03:02:44;8.02;;;4.95;;
76850;SDS011;65824;43.726;20.692;2023-05-31T03:05:09;8.88;;;5.30;;
76850;SDS011;65824;43.726;20.692;2023-05-31T03:07:37;8.90;;;5.18;;
76850;SDS011;65824;43.726;20.692;2023-05-31T03:10:02;9.93;;;4.95;;
76850;SDS011;65824;43.726;20.692;2023-05-31T03:12:32;8.50;;;5.10;;
76850;SDS011;65824;43.726;20.692;2023-05-31T03:14:58;13.88;;;5.22;;
76850;SDS011;65824;43.726;20.692;2023-05-31T03:17:24;10.63;;;4.97;;
76850;SDS011;65824;43.726;20.692;2023-05-31T03:19:50;9.63;;;5.55;;
76850;SDS011;65824;43.726;20.692;2023-05-31T03:22:15;10.57;;;5.47;;
76850;SDS011;65824;43.726;20.692;2023-05-31T03:24:41;10.05;;;5.72;;
76850;SDS011;65824;43.726;20.692;2023-05-31T03:27:08;11.43;;;6.00;;
76850;SDS011;65824;43.726;20.692;2023-05-31T03:29:37;13.52;;;7.68;;
76850;SDS011;65824;43.726;20.692;2023-05-31T03:32:04;10.20;;;6.68;;
76850;SDS011;65824;43.726;20.692;2023-05-31T03:34:30;13.23;;;6.88;;
76850;SDS011;65824;43.726;20.692;2023-05-31T03:36:55;11.57;;;6.10;;
76850;SDS011;65824;43.726;20.692;2023-05-31T03:39:24;9.88;;;5.20;;
76850;SDS011;65824;43.726;20.692;2023-05-31T03:41:50;10.40;;;5.32;;
76850;SDS011;65824;43.726;20.692;2023-05-31T03:44:16;8.85;;;5.65;;
76850;SDS011;65824;43.726;20.692;2023-05-31T03:46:42;9.63;;;5.13;;
76850;SDS011;65824;43.726;20.692;2023-05-31T03:49:07;10.90;;;5.68;;
76850;SDS011;65824;43.726;20.692;2023-05-31T03:51:33;10.68;;;5.65;;
76850;SDS011;65824;43.726;20.692;2023-05-31T03:53:58;8.35;;;5.65;;
76850;SDS011;65824;43.726;20.692;2023-05-31T03:56:24;10.05;;;5.32;;
76850;SDS011;65824;43.726;20.692;2023-05-31T03:58:50;7.30;;;4.43;;
76850;SDS011;65824;43.726;20.692;2023-05-31T04:01:16;10.35;;;5.63;;
76850;SDS011;65824;43.726;20.692;2023-05-31T04:03:43;9.93;;;5.00;;
76850;SDS011;65824;43.726;20.692;2023-05-31T04:06:10;10.00;;;5.30;;
76850;SDS011;65824;43.726;20.692;2023-05-31T04:08:35;8.38;;;4.57;;
76850;SDS011;65824;43.726;20.692;2023-05-31T04:11:01;9.70;;;5.10;;
76850;SDS011;65824;43.726;20.692;2023-05-31T04:13:27;9.55;;;5.20;;
76850;SDS011;65824;43.726;20.692;2023-05-31T04:15:53;9.20;;;4.50;;
76850;SDS011;65824;43.726;20.692;2023-05-31T04:18:19;7.45;;;4.78;;
76850;SDS011;65824;43.726;20.692;2023-05-31T04:20:44;8.15;;;4.65;;
76850;SDS011;65824;43.726;20.692;2023-05-31T04:23:10;10.10;;;5.65;;
76850;SDS011;65824;43.726;20.692;2023-05-31T04:25:35;11.45;;;5.85;;
76850;SDS011;65824;43.726;20.692;2023-05-31T04:28:01;10.43;;;5.90;;
76850;SDS011;65824;43.726;20.692;2023-05-31T04:30:28;10.80;;;6.22;;
76850;SDS011;65824;43.726;20.692;2023-05-31T04:32:53;10.95;;;5.70;;
76850;SDS011;65824;43.726;20.692;2023-05-31T04:35:22;12.25;;;5.43;;
76850;SDS011;65824;43.726;20.692;2023-05-31T04:37:48;7.50;;;4.93;;
76850;SDS011;65824;43.726;20.692;2023-05-31T04:40:17;10.55;;;5.35;;
76850;SDS011;65824;43.726;20.692;2023-05-31T04:42:47;10.18;;;5.80;;
76850;SDS011;65824;43.726;20.692;2023-05-31T04:45:13;9.40;;;5.50;;
76850;SDS011;65824;43.726;20.692;2023-05-31T04:47:40;9.80;;;5.20;;
76850;SDS011;65824;43.726;20.692;2023-05-31T04:50:12;9.38;;;5.40;;
76850;SDS011;65824;43.726;20.692;2023-05-31T04:52:41;11.63;;;7.10;;
76850;SDS011;65824;43.726;20.692;2023-05-31T04:55:07;9.30;;;4.90;;
76850;SDS011;65824;43.726;20.692;2023-05-31T04:57:33;8.95;;;5.07;;
76850;SDS011;65824;43.726;20.692;2023-05-31T04:59:59;8.20;;;4.93;;
76850;SDS011;65824;43.726;20.692;2023-05-31T05:02:25;9.95;;;5.20;;
76850;SDS011;65824;43.726;20.692;2023-05-31T05:04:52;8.77;;;5.03;;
76850;SDS011;65824;43.726;20.692;2023-05-31T05:07:18;6.70;;;4.00;;
76850;SDS011;65824;43.726;20.692;2023-05-31T05:09:45;7.43;;;4.10;;
76850;SDS011;65824;43.726;20.692;2023-05-31T05:12:11;8.48;;;4.63;;
76850;SDS011;65824;43.726;20.692;2023-05-31T05:14:38;6.53;;;4.03;;
76850;SDS011;65824;43.726;20.692;2023-05-31T05:17:03;9.70;;;4.72;;
76850;SDS011;65824;43.726;20.692;2023-05-31T05:19:31;9.65;;;4.85;;
76850;SDS011;65824;43.726;20.692;2023-05-31T05:21:57;8.18;;;4.78;;
76850;SDS011;65824;43.726;20.692;2023-05-31T05:24:22;9.68;;;4.82;;
76850;SDS011;65824;43.726;20.692;2023-05-31T05:26:48;8.95;;;5.13;;
76850;SDS011;65824;43.726;20.692;2023-05-31T05:29:14;9.20;;;5.28;;
76850;SDS011;65824;43.726;20.692;2023-05-31T05:31:40;9.30;;;5.30;;
76850;SDS011;65824;43.726;20.692;2023-05-31T05:34:07;9.38;;;5.88;;
76850;SDS011;65824;43.726;20.692;2023-05-31T05:36:34;10.02;;;5.90;;
76850;SDS011;65824;43.726;20.692;2023-05-31T05:39:01;10.30;;;5.28;;
76850;SDS011;65824;43.726;20.692;2023-05-31T05:41:31;11.10;;;5.70;;
76850;SDS011;65824;43.726;20.692;2023-05-31T05:43:56;11.40;;;6.10;;
76850;SDS011;65824;43.726;20.692;2023-05-31T05:46:22;10.10;;;5.63;;
76850;SDS011;65824;43.726;20.692;2023-05-31T05:48:49;10.70;;;6.47;;
76850;SDS011;65824;43.726;20.692;2023-05-31T05:51:15;12.77;;;6.45;;
76850;SDS011;65824;43.726;20.692;2023-05-31T05:53:41;10.57;;;6.18;;
76850;SDS011;65824;43.726;20.692;2023-05-31T05:56:07;12.77;;;6.65;;
76850;SDS011;65824;43.726;20.692;2023-05-31T05:58:32;11.82;;;7.10;;
76850;SDS011;65824;43.726;20.692;2023-05-31T06:00:58;11.35;;;6.70;;
76850;SDS011;65824;43.726;20.692;2023-05-31T06:03:25;11.68;;;6.65;;
76850;SDS011;65824;43.726;20.692;2023-05-31T06:05:51;14.23;;;7.28;;
76850;SDS011;65824;43.726;20.692;2023-05-31T06:08:17;11.20;;;6.15;;
76850;SDS011;65824;43.726;20.692;2023-05-31T06:10:43;11.85;;;6.40;;
76850;SDS011;65824;43.726;20.692;2023-05-31T06:13:08;13.77;;;6.30;;
76850;SDS011;65824;43.726;20.692;2023-05-31T06:15:34;14.13;;;6.30;;
76850;SDS011;65824;43.726;20.692;2023-05-31T06:18:00;9.43;;;5.90;;
76850;SDS011;65824;43.726;20.692;2023-05-31T06:20:25;10.88;;;6.40;;
76850;SDS011;65824;43.726;20.692;2023-05-31T06:22:51;16.67;;;6.35;;
76850;SDS011;65824;43.726;20.692;2023-05-31T06:25:21;13.02;;;6.45;;
76850;SDS011;65824;43.726;20.692;2023-05-31T06:27:54;9.55;;;6.45;;
76850;SDS011;65824;43.726;20.692;2023-05-31T06:30:22;10.38;;;5.70;;
76850;SDS011;65824;43.726;20.692;2023-05-31T06:32:48;9.23;;;6.22;;
76850;SDS011;65824;43.726;20.692;2023-05-31T06:35:14;17.00;;;6.68;;
76850;SDS011;65824;43.726;20.692;2023-05-31T06:37:40;14.18;;;7.00;;
76850;SDS011;65824;43.726;20.692;2023-05-31T06:40:08;11.60;;;6.55;;
76850;SDS011;65824;43.726;20.692;2023-05-31T06:42:35;14.07;;;6.68;;
76850;SDS011;65824;43.726;20.692;2023-05-31T06:45:01;10.88;;;7.00;;
76850;SDS011;65824;43.726;20.692;2023-05-31T06:47:27;13.15;;;7.18;;
76850;SDS011;65824;43.726;20.692;2023-05-31T06:49:53;11.07;;;7.22;;
76850;SDS011;65824;43.726;20.692;2023-05-31T06:52:19;13.30;;;8.43;;
76850;SDS011;65824;43.726;20.692;2023-05-31T06:54:45;11.68;;;6.95;;
76850;SDS011;65824;43.726;20.692;2023-05-31T06:57:11;10.35;;;7.07;;
76850;SDS011;65824;43.726;20.692;2023-05-31T06:59:36;10.95;;;6.60;;
76850;SDS011;65824;43.726;20.692;2023-05-31T07:02:02;13.48;;;7.53;;
76850;SDS011;65824;43.726;20.692;2023-05-31T07:04:28;11.73;;;7.50;;
76850;SDS011;65824;43.726;20.692;2023-05-31T07:06:54;11.80;;;7.32;;
76850;SDS011;65824;43.726;20.692;2023-05-31T07:09:23;11.63;;;7.40;;
76850;SDS011;65824;43.726;20.692;2023-05-31T07:11:49;12.27;;;7.82;;
76850;SDS011;65824;43.726;20.692;2023-05-31T07:14:14;13.10;;;8.10;;
76850;SDS011;65824;43.726;20.692;2023-05-31T07:16:40;12.27;;;8.05;;
76850;SDS011;65824;43.726;20.692;2023-05-31T07:19:07;14.23;;;8.30;;
76850;SDS011;65824;43.726;20.692;2023-05-31T07:21:33;13.82;;;8.23;;
76850;SDS011;65824;43.726;20.692;2023-05-31T07:23:59;13.90;;;8.45;;
76850;SDS011;65824;43.726;20.692;2023-05-31T07:26:27;16.27;;;9.00;;
76850;SDS011;65824;43.726;20.692;2023-05-31T07:28:52;16.48;;;9.05;;
76850;SDS011;65824;43.726;20.692;2023-05-31T07:31:21;16.10;;;9.75;;
76850;SDS011;65824;43.726;20.692;2023-05-31T07:33:47;17.02;;;9.90;;
76850;SDS011;65824;43.726;20.692;2023-05-31T07:36:13;18.60;;;9.95;;
76850;SDS011;65824;43.726;20.692;2023-05-31T07:38:41;14.43;;;9.10;;
76850;SDS011;65824;43.726;20.692;2023-05-31T07:41:07;19.30;;;10.38;;
76850;SDS011;65824;43.726;20.692;2023-05-31T07:43:32;18.58;;;9.80;;
76850;SDS011;65824;43.726;20.692;2023-05-31T07:45:59;15.75;;;9.20;;
76850;SDS011;65824;43.726;20.692;2023-05-31T07:48:26;14.57;;;9.85;;
76850;SDS011;65824;43.726;20.692;2023-05-31T07:50:53;13.90;;;9.05;;
76850;SDS011;65824;43.726;20.692;2023-05-31T07:53:20;14.80;;;10.02;;
76850;SDS011;65824;43.726;20.692;2023-05-31T07:55:46;19.75;;;10.88;;
76850;SDS011;65824;43.726;20.692;2023-05-31T07:58:12;17.77;;;10.43;;
76850;SDS011;65824;43.726;20.692;2023-05-31T08:00:38;13.90;;;9.85;;
76850;SDS011;65824;43.726;20.692;2023-05-31T08:03:04;22.75;;;12.77;;
76850;SDS011;65824;43.726;20.692;2023-05-31T08:05:32;23.88;;;12.95;;
76850;SDS011;65824;43.726;20.692;2023-05-31T08:07:58;20.13;;;11.68;;
76850;SDS011;65824;43.726;20.692;2023-05-31T08:10:24;19.30;;;11.20;;
76850;SDS011;65824;43.726;20.692;2023-05-31T08:12:50;19.65;;;11.73;;
76850;SDS011;65824;43.726;20.692;2023-05-31T08:15:15;15.15;;;10.65;;
76850;SDS011;65824;43.726;20.692;2023-05-31T08:20:12;17.67;;;10.52;;
76850;SDS011;65824;43.726;20.692;2023-05-31T08:22:45;15.18;;;10.20;;
76850;SDS011;65824;43.726;20.692;2023-05-31T08:25:11;15.63;;;10.82;;
76850;SDS011;65824;43.726;20.692;2023-05-31T08:27:38;13.65;;;9.52;;
76850;SDS011;65824;43.726;20.692;2023-05-31T08:30:08;15.95;;;11.52;;
76850;SDS011;65824;43.726;20.692;2023-05-31T08:32:35;14.02;;;10.40;;
76850;SDS011;65824;43.726;20.692;2023-05-31T08:35:06;15.63;;;10.13;;
76850;SDS011;65824;43.726;20.692;2023-05-31T08:37:40;15.05;;;10.13;;
76850;SDS011;65824;43.726;20.692;2023-05-31T08:40:06;15.27;;;9.82;;
76850;SDS011;65824;43.726;20.692;2023-05-31T08:42:37;15.63;;;10.05;;
76850;SDS011;65824;43.726;20.692;2023-05-31T08:45:08;19.50;;;11.10;;
76850;SDS011;65824;43.726;20.692;2023-05-31T08:47:39;18.65;;;10.35;;
76850;SDS011;65824;43.726;20.692;2023-05-31T08:50:21;14.07;;;9.68;;
76850;SDS011;65824;43.726;20.692;2023-05-31T08:52:47;14.63;;;10.15;;
76850;SDS011;65824;43.726;20.692;2023-05-31T08:55:13;17.50;;;10.70;;
76850;SDS011;65824;43.726;20.692;2023-05-31T08:57:41;15.77;;;9.70;;
76850;SDS011;65824;43.726;20.692;2023-05-31T09:00:07;14.43;;;9.73;;
76850;SDS011;65824;43.726;20.692;2023-05-31T09:02:39;14.93;;;8.98;;
76850;SDS011;65824;43.726;20.692;2023-05-31T09:05:05;17.42;;;10.55;;
76850;SDS011;65824;43.726;20.692;2023-05-31T09:07:37;16.70;;;9.80;;
76850;SDS011;65824;43.726;20.692;2023-05-31T09:10:03;15.50;;;10.45;;
76850;SDS011;65824;43.726;20.692;2023-05-31T09:12:32;15.40;;;10.10;;
76850;SDS011;65824;43.726;20.692;2023-05-31T09:15:02;15.35;;;9.85;;
76850;SDS011;65824;43.726;20.692;2023-05-31T09:17:31;16.17;;;9.70;;
76850;SDS011;65824;43.726;20.692;2023-05-31T09:19:58;17.88;;;10.00;;
76850;SDS011;65824;43.726;20.692;2023-05-31T09:22:25;21.08;;;13.68;;
76850;SDS011;65824;43.726;20.692;2023-05-31T09:24:58;27.70;;;15.82;;
76850;SDS011;65824;43.726;20.692;2023-05-31T09:27:25;14.95;;;10.45;;
76850;SDS011;65824;43.726;20.692;2023-05-31T09:29:54;15.73;;;9.57;;
76850;SDS011;65824;43.726;20.692;2023-05-31T09:32:25;17.30;;;10.40;;
76850;SDS011;65824;43.726;20.692;2023-05-31T09:37:41;17.20;;;10.68;;
76850;SDS011;65824;43.726;20.692;2023-05-31T09:40:09;21.77;;;11.57;;
76850;SDS011;65824;43.726;20.692;2023-05-31T09:42:35;23.05;;;12.23;;
76850;SDS011;65824;43.726;20.692;2023-05-31T09:45:00;16.95;;;10.93;;
76850;SDS011;65824;43.726;20.692;2023-05-31T09:47:27;15.77;;;11.13;;
76850;SDS011;65824;43.726;20.692;2023-05-31T09:49:53;18.95;;;13.35;;
76850;SDS011;65824;43.726;20.692;2023-05-31T09:52:28;18.27;;;11.77;;
76850;SDS011;65824;43.726;20.692;2023-05-31T09:55:04;20.98;;;12.32;;
76850;SDS011;65824;43.726;20.692;2023-05-31T09:57:33;22.00;;;13.23;;
76850;SDS011;65824;43.726;20.692;2023-05-31T10:00:09;23.80;;;12.05;;
76850;SDS011;65824;43.726;20.692;2023-05-31T10:02:45;19.83;;;12.80;;
76850;SDS011;65824;43.726;20.692;2023-05-31T10:05:27;19.13;;;12.57;;
76850;SDS011;65824;43.726;20.692;2023-05-31T10:07:55;20.65;;;13.02;;
76850;SDS011;65824;43.726;20.692;2023-05-31T10:10:22;19.13;;;12.77;;
76850;SDS011;65824;43.726;20.692;2023-05-31T10:15:19;21.70;;;12.25;;
76850;SDS011;65824;43.726;20.692;2023-05-31T10:17:50;17.73;;;12.10;;
76850;SDS011;65824;43.726;20.692;2023-05-31T10:20:29;21.45;;;13.32;;
76850;SDS011;65824;43.726;20.692;2023-05-31T10:23:23;16.05;;;11.45;;
76850;SDS011;65824;43.726;20.692;2023-05-31T10:25:56;17.63;;;11.32;;
76850;SDS011;65824;43.726;20.692;2023-05-31T10:28:38;18.27;;;11.90;;
76850;SDS011;65824;43.726;20.692;2023-05-31T10:31:08;19.40;;;12.27;;
76850;SDS011;65824;43.726;20.692;2023-05-31T10:33:36;22.35;;;11.82;;
76850;SDS011;65824;43.726;20.692;2023-05-31T10:36:05;19.58;;;12.77;;
76850;SDS011;65824;43.726;20.692;2023-05-31T10:38:32;19.63;;;11.98;;
76850;SDS011;65824;43.726;20.692;2023-05-31T10:41:09;17.55;;;12.02;;
76850;SDS011;65824;43.726;20.692;2023-05-31T10:48:51;20.02;;;11.35;;
76850;SDS011;65824;43.726;20.692;2023-05-31T10:51:42;17.85;;;11.20;;
76850;SDS011;65824;43.726;20.692;2023-05-31T10:54:07;17.40;;;10.57;;
76850;SDS011;65824;43.726;20.692;2023-05-31T10:56:36;19.02;;;11.05;;
76850;SDS011;65824;43.726;20.692;2023-05-31T10:59:04;18.02;;;11.98;;
76850;SDS011;65824;43.726;20.692;2023-05-31T11:01:31;17.92;;;11.02;;
76850;SDS011;65824;43.726;20.692;2023-05-31T11:04:01;20.85;;;13.02;;
76850;SDS011;65824;43.726;20.692;2023-05-31T11:06:27;19.77;;;12.52;;
76850;SDS011;65824;43.726;20.692;2023-05-31T11:19:24;18.90;;;12.68;;
76850;SDS011;65824;43.726;20.692;2023-05-31T11:24:51;25.08;;;13.20;;
76850;SDS011;65824;43.726;20.692;2023-05-31T11:27:21;22.25;;;13.75;;
76850;SDS011;65824;43.726;20.692;2023-05-31T11:35:13;21.23;;;12.73;;
76850;SDS011;65824;43.726;20.692;2023-05-31T11:37:41;23.42;;;14.40;;
76850;SDS011;65824;43.726;20.692;2023-05-31T11:40:14;21.40;;;12.80;;
76850;SDS011;65824;43.726;20.692;2023-05-31T11:42:44;23.80;;;13.70;;
76850;SDS011;65824;43.726;20.692;2023-05-31T11:45:10;25.27;;;13.05;;
76850;SDS011;65824;43.726;20.692;2023-05-31T11:50:17;20.85;;;13.00;;
76850;SDS011;65824;43.726;20.692;2023-05-31T11:52:43;21.23;;;13.80;;
76850;SDS011;65824;43.726;20.692;2023-05-31T11:55:09;23.02;;;14.20;;
76850;SDS011;65824;43.726;20.692;2023-05-31T11:57:43;26.13;;;14.63;;
76850;SDS011;65824;43.726;20.692;2023-05-31T12:00:10;19.77;;;12.80;;
76850;SDS011;65824;43.726;20.692;2023-05-31T12:02:40;19.67;;;12.50;;
76850;SDS011;65824;43.726;20.692;2023-05-31T12:05:06;19.90;;;12.70;;
76850;SDS011;65824;43.726;20.692;2023-05-31T12:07:37;20.85;;;12.75;;
76850;SDS011;65824;43.726;20.692;2023-05-31T12:10:06;22.65;;;13.15;;
76850;SDS011;65824;43.726;20.692;2023-05-31T12:12:34;22.75;;;14.27;;
76850;SDS011;65824;43.726;20.692;2023-05-31T12:15:00;24.88;;;14.60;;
76850;SDS011;65824;43.726;20.692;2023-05-31T12:17:34;24.48;;;16.27;;
76850;SDS011;65824;43.726;20.692;2023-05-31T12:20:00;24.08;;;15.25;;
76850;SDS011;65824;43.726;20.692;2023-05-31T12:22:26;27.05;;;17.05;;
76850;SDS011;65824;43.726;20.692;2023-05-31T12:24:53;25.42;;;15.38;;
76850;SDS011;65824;43.726;20.692;2023-05-31T12:27:26;26.48;;;16.83;;
76850;SDS011;65824;43.726;20.692;2023-05-31T12:29:56;26.27;;;17.48;;
76850;SDS011;65824;43.726;20.692;2023-05-31T12:32:23;26.65;;;16.95;;
76850;SDS011;65824;43.726;20.692;2023-05-31T12:34:52;26.63;;;16.77;;
76850;SDS011;65824;43.726;20.692;2023-05-31T12:37:28;28.17;;;17.55;;
76850;SDS011;65824;43.726;20.692;2023-05-31T12:42:41;29.58;;;16.92;;
76850;SDS011;65824;43.726;20.692;2023-05-31T12:45:23;26.77;;;17.77;;
76850;SDS011;65824;43.726;20.692;2023-05-31T12:47:55;28.40;;;18.30;;
76850;SDS011;65824;43.726;20.692;2023-05-31T12:50:22;29.67;;;18.85;;
76850;SDS011;65824;43.726;20.692;2023-05-31T12:52:54;30.58;;;18.67;;
76850;SDS011;65824;43.726;20.692;2023-05-31T12:55:21;32.40;;;19.85;;
76850;SDS011;65824;43.726;20.692;2023-05-31T12:57:47;27.42;;;18.40;;
76850;SDS011;65824;43.726;20.692;2023-05-31T13:00:13;28.27;;;19.98;;
76850;SDS011;65824;43.726;20.692;2023-05-31T13:02:40;29.13;;;18.75;;
76850;SDS011;65824;43.726;20.692;2023-05-31T13:05:07;33.20;;;19.85;;
76850;SDS011;65824;43.726;20.692;2023-05-31T13:07:34;31.40;;;18.85;;
76850;SDS011;65824;43.726;20.692;2023-05-31T13:10:06;32.95;;;19.70;;
76850;SDS011;65824;43.726;20.692;2023-05-31T13:12:33;31.17;;;19.10;;
76850;SDS011;65824;43.726;20.692;2023-05-31T13:14:58;32.55;;;20.17;;
76850;SDS011;65824;43.726;20.692;2023-05-31T13:17:24;30.45;;;19.73;;
76850;SDS011;65824;43.726;20.692;2023-05-31T13:19:52;31.42;;;19.50;;
76850;SDS011;65824;43.726;20.692;2023-05-31T13:22:20;26.05;;;17.90;;
76850;SDS011;65824;43.726;20.692;2023-05-31T13:24:46;26.33;;;18.25;;
76850;SDS011;65824;43.726;20.692;2023-05-31T13:27:12;28.55;;;19.27;;
76850;SDS011;65824;43.726;20.692;2023-05-31T13:29:38;29.27;;;18.63;;
76850;SDS011;65824;43.726;20.692;2023-05-31T13:32:04;29.55;;;18.63;;
76850;SDS011;65824;43.726;20.692;2023-05-31T13:34:30;28.50;;;17.92;;
76850;SDS011;65824;43.726;20.692;2023-05-31T13:36:56;29.05;;;18.20;;
76850;SDS011;65824;43.726;20.692;2023-05-31T13:39:21;28.10;;;16.88;;
76850;SDS011;65824;43.726;20.692;2023-05-31T13:41:48;27.42;;;18.85;;
76850;SDS011;65824;43.726;20.692;2023-05-31T13:44:15;28.52;;;18.95;;
76850;SDS011;65824;43.726;20.692;2023-05-31T13:46:41;28.10;;;17.83;;
76850;SDS011;65824;43.726;20.692;2023-05-31T13:49:10;31.63;;;19.23;;
76850;SDS011;65824;43.726;20.692;2023-05-31T13:51:40;30.25;;;19.75;;
76850;SDS011;65824;43.726;20.692;2023-05-31T13:54:06;32.45;;;20.50;;
76850;SDS011;65824;43.726;20.692;2023-05-31T13:56:32;30.30;;;19.65;;
76850;SDS011;65824;43.726;20.692;2023-05-31T13:58:58;31.73;;;19.38;;
76850;SDS011;65824;43.726;20.692;2023-05-31T14:01:24;29.50;;;19.23;;
76850;SDS011;65824;43.726;20.692;2023-05-31T14:03:49;28.95;;;19.20;;
76850;SDS011;65824;43.726;20.692;2023-05-31T14:06:15;28.77;;;19.42;;
76850;SDS011;65824;43.726;20.692;2023-05-31T14:08:42;29.13;;;17.77;;
76850;SDS011;65824;43.726;20.692;2023-05-31T14:11:09;28.88;;;17.35;;
76850;SDS011;65824;43.726;20.692;2023-05-31T14:13:37;28.88;;;18.95;;
76850;SDS011;65824;43.726;20.692;2023-05-31T14:16:03;29.92;;;19.65;;
76850;SDS011;65824;43.726;20.692;2023-05-31T14:18:29;32.83;;;18.33;;
76850;SDS011;65824;43.726;20.692;2023-05-31T14:20:55;31.13;;;18.75;;
76850;SDS011;65824;43.726;20.692;2023-05-31T14:23:21;29.02;;;18.42;;
76850;SDS011;65824;43.726;20.692;2023-05-31T14:25:47;33.38;;;19.48;;
76850;SDS011;65824;43.726;20.692;2023-05-31T14:28:12;31.27;;;19.75;;
76850;SDS011;65824;43.726;20.692;2023-05-31T14:30:38;34.70;;;20.58;;
76850;SDS011;65824;43.726;20.692;2023-05-31T14:33:03;34.20;;;20.05;;
76850;SDS011;65824;43.726;20.692;2023-05-31T14:35:29;38.72;;;21.88;;
76850;SDS011;65824;43.726;20.692;2023-05-31T14:37:57;40.47;;;22.23;;
76850;SDS011;65824;43.726;20.692;2023-05-31T14:40:23;31.50;;;19.15;;
76850;SDS011;65824;43.726;20.692;2023-05-31T14:42:48;36.75;;;21.90;;
76850;SDS011;65824;43.726;20.692;2023-05-31T14:45:15;39.53;;;21.55;;
76850;SDS011;65824;43.726;20.692;2023-05-31T14:47:44;40.72;;;23.13;;
76850;SDS011;65824;43.726;20.692;2023-05-31T14:50:13;38.45;;;22.55;;
76850;SDS011;65824;43.726;20.692;2023-05-31T14:52:38;40.63;;;22.23;;
76850;SDS011;65824;43.726;20.692;2023-05-31T14:55:05;41.55;;;23.10;;
76850;SDS011;65824;43.726;20.692;2023-05-31T14:57:31;44.60;;;25.27;;
76850;SDS011;65824;43.726;20.692;2023-05-31T14:59:58;45.17;;;25.70;;
76850;SDS011;65824;43.726;20.692;2023-05-31T15:02:25;45.75;;;24.45;;